Pacific Beryl — 9V9809 — position and weather

sailwx.info

Track history (hours):
 
Tides and Currents Weather Stations Pressure Air Temp Water Temp Dewpoint Dewpoint Depression Visibility Wind Speed Wind Dir Waves Ship Positions

Pacific Beryl

Last reported at 2014-Dec-22 08:16 UTC. Time now 2014-Dec-22 14:14 UTC.
Position N 01°25' E 103°56'.

Length 182 m; draft 7.5 m.

Type: Tanker. MMSI: 566366000.

Date/timePositionNaut miles runAvg speedWind from/ knotsBaromVisibWave heightAir tempDewpointWater temp
2014-Dec-22 08:16N 01°25' E 103°56'6 7.7
2014-Dec-22 07:32N 01°23' E 104°01'6 6.5
2014-Dec-22 06:32N 01°17' E 104°02'1010.1
2014-Dec-22 05:32N 01°13' E 103°53'4 3.9
2014-Dec-22 04:26N 01°13' E 103°49'0 0.1
2014-Dec-22 03:32N 01°13' E 103°48'0 0.0
2014-Dec-22 02:32N 01°13' E 103°48'0 0.1
2014-Dec-22 01:08N 01°13' E 103°48'0 0.2
2014-Dec-22 00:26N 01°13' E 103°48'0 0.1
2014-Dec-21 23:14N 01°13' E 103°48'0 0.0
2014-Dec-21 22:14N 01°13' E 103°48'0 0.1
2014-Dec-21 21:26N 01°13' E 103°48'0 0.1
2014-Dec-21 20:32N 01°13' E 103°48'0 0.0
2014-Dec-21 19:32N 01°13' E 103°48'0 0.1
2014-Dec-21 18:23N 01°13' E 103°48'0 0.0
2014-Dec-21 17:32N 01°13' E 103°48'0 0.1
2014-Dec-21 16:29N 01°13' E 103°48'0 0.1
2014-Dec-21 15:32N 01°13' E 103°48'0 0.1
2014-Dec-21 14:32N 01°13' E 103°48'0 0.0
2014-Dec-21 13:32N 01°13' E 103°48'0 0.1
2014-Dec-21 12:26N 01°13' E 103°48'0 0.0
2014-Dec-21 11:33N 01°13' E 103°48'0 0.1
2014-Dec-21 10:33N 01°13' E 103°49'0 0.1
2014-Dec-21 09:34N 01°13' E 103°49'0 0.1
2014-Dec-21 08:34N 01°13' E 103°49'0 0.1
2014-Dec-21 07:32N 01°13' E 103°49'0 0.0
2014-Dec-21 06:33N 01°13' E 103°49'0 0.0
2014-Dec-21 05:33N 01°13' E 103°49'0 0.0
2014-Dec-21 04:34N 01°13' E 103°49'3 2.8
2014-Dec-21 03:33N 01°13' E 103°51'9 8.8
2014-Dec-21 02:33N 01°15' E 103°60'7 7.4
2014-Dec-21 01:33N 01°16' E 104°07'7 7.4
2014-Dec-21 00:33N 01°18' E 104°14'1 0.1
2014-Dec-20 09:21N 01°16' E 104°15'1113.3
2014-Dec-20 08:33N 01°15' E 104°04'1413.3
2014-Dec-20 07:30N 01°11' E 103°51'3 0.1
2014-Dec-18 23:33N 01°10' E 103°47'8 8.0
2014-Dec-18 22:33N 01°14' E 103°55'8 8.5
2014-Dec-18 21:33N 01°16' E 104°03'7 7.4
2014-Dec-18 20:33N 01°17' E 104°10'  
Track history (hours):
 
Tides and Currents Weather Stations Pressure Air Temp Water Temp Dewpoint Dewpoint Depression Visibility Wind Speed Wind Dir Waves Ship Positions

Pacific Beryl

Last reported at 2014-Dec-22 08:16 UTC. Time now 2014-Dec-22 14:14 UTC.
Position N 01°25' E 103°56'.

Length 182 m; draft 7.5 m.

Type: Tanker. MMSI: 566366000.

Date/timePositionNaut miles runAvg speedWind from/ knotsBaromVisibWave heightAir tempDewpointWater temp
2014-Dec-22 08:16N 01°25' E 103°56'6 7.7
2014-Dec-22 07:32N 01°23' E 104°01'6 6.5
2014-Dec-22 06:32N 01°17' E 104°02'1010.1
2014-Dec-22 05:32N 01°13' E 103°53'4 3.9
2014-Dec-22 04:26N 01°13' E 103°49'0 0.1
2014-Dec-22 03:32N 01°13' E 103°48'0 0.0
2014-Dec-22 02:32N 01°13' E 103°48'0 0.1
2014-Dec-22 01:08N 01°13' E 103°48'0 0.2
2014-Dec-22 00:26N 01°13' E 103°48'0 0.1
2014-Dec-21 23:14N 01°13' E 103°48'0 0.0
2014-Dec-21 22:14N 01°13' E 103°48'0 0.1
2014-Dec-21 21:26N 01°13' E 103°48'0 0.1
2014-Dec-21 20:32N 01°13' E 103°48'0 0.0
2014-Dec-21 19:32N 01°13' E 103°48'0 0.1
2014-Dec-21 18:23N 01°13' E 103°48'0 0.0
2014-Dec-21 17:32N 01°13' E 103°48'0 0.1
2014-Dec-21 16:29N 01°13' E 103°48'0 0.1
2014-Dec-21 15:32N 01°13' E 103°48'0 0.1
2014-Dec-21 14:32N 01°13' E 103°48'0 0.0
2014-Dec-21 13:32N 01°13' E 103°48'0 0.1
2014-Dec-21 12:26N 01°13' E 103°48'0 0.0
2014-Dec-21 11:33N 01°13' E 103°48'0 0.1
2014-Dec-21 10:33N 01°13' E 103°49'0 0.1
2014-Dec-21 09:34N 01°13' E 103°49'0 0.1
2014-Dec-21 08:34N 01°13' E 103°49'0 0.1
2014-Dec-21 07:32N 01°13' E 103°49'0 0.0
2014-Dec-21 06:33N 01°13' E 103°49'0 0.0
2014-Dec-21 05:33N 01°13' E 103°49'0 0.0
2014-Dec-21 04:34N 01°13' E 103°49'3 2.8
2014-Dec-21 03:33N 01°13' E 103°51'9 8.8
2014-Dec-21 02:33N 01°15' E 103°60'7 7.4
2014-Dec-21 01:33N 01°16' E 104°07'7 7.4
2014-Dec-21 00:33N 01°18' E 104°14'1 0.1
2014-Dec-20 09:21N 01°16' E 104°15'1113.3
2014-Dec-20 08:33N 01°15' E 104°04'1413.3
2014-Dec-20 07:30N 01°11' E 103°51'3 0.1
2014-Dec-18 23:33N 01°10' E 103°47'8 8.0
2014-Dec-18 22:33N 01°14' E 103°55'8 8.5
2014-Dec-18 21:33N 01°16' E 104°03'7 7.4
2014-Dec-18 20:33N 01°17' E 104°10'  

Dump ship's entire track history